Time;durP1;ratioP1;P1;durP2;ratioP2;P2;SDS_P1;SDS_P2;PMS_P1;PMS_P2;Temp;Humidity;BMP_temperature;BMP_pressure;BME280_temperature;BME280_humidity;BME280_pressure;Samples;Min_cycle;Max_cycle;Signal;HPM_P1;HPM_P2
2021/09/29 00:00:00;;;;;;;20.33;16.50;;;11.20;99.90;;;;;;5048760;28;20051;-75
2021/09/29 00:02:25;;;;;;;21.20;16.08;;;11.20;99.90;;;;;;5049445;28;20384;-76
2021/09/29 00:04:51;;;;;;;22.40;16.45;;;11.20;99.90;;;;;;5045773;28;20049;-78
2021/09/29 00:07:17;;;;;;;21.52;16.20;;;11.10;99.90;;;;;;5046524;28;20064;-76
2021/09/29 00:09:43;;;;;;;20.33;16.45;;;11.20;99.90;;;;;;5047390;28;20044;-76
2021/09/29 00:12:09;;;;;;;21.05;17.58;;;11.10;99.90;;;;;;5047124;28;20631;-76
2021/09/29 00:14:35;;;;;;;19.13;17.15;;;11.20;99.90;;;;;;5047714;28;20487;-76
2021/09/29 00:17:04;;;;;;;18.42;16.45;;;11.10;99.90;;;;;;5046494;28;20048;-76
2021/09/29 00:19:29;;;;;;;23.38;16.92;;;11.10;99.90;;;;;;5030595;28;20044;-76
2021/09/29 00:21:55;;;;;;;24.67;16.98;;;11.10;99.90;;;;;;5046288;28;20037;-76
2021/09/29 00:24:21;;;;;;;19.88;17.23;;;11.10;99.90;;;;;;5047054;28;20043;-76
2021/09/29 00:26:47;;;;;;;20.00;16.95;;;11.00;99.90;;;;;;5046490;28;20036;-76
2021/09/29 00:29:12;;;;;;;17.60;15.63;;;11.00;99.90;;;;;;5029569;28;20056;-76
2021/09/29 00:31:39;;;;;;;20.48;16.77;;;11.00;99.90;;;;;;5063181;28;20075;-76
2021/09/29 00:34:40;;;;;;;20.15;15.80;;;11.00;99.90;;;;;;5047257;28;20059;-76
2021/09/29 00:36:58;;;;;;;19.73;16.05;;;11.00;99.90;;;;;;5043868;28;20064;-77
2021/09/29 00:39:24;;;;;;;22.00;16.35;;;10.90;99.90;;;;;;5031522;28;20056;-77
2021/09/29 00:41:50;;;;;;;22.02;15.43;;;10.90;99.90;;;;;;5048669;28;20498;-76
2021/09/29 00:44:16;;;;;;;19.70;16.27;;;10.90;99.90;;;;;;5048480;28;20045;-78
2021/09/29 00:46:42;;;;;;;19.67;14.52;;;10.90;99.90;;;;;;5032253;28;20048;-77
2021/09/29 00:49:08;;;;;;;19.30;15.00;;;10.90;99.90;;;;;;5049043;28;20044;-77
2021/09/29 00:51:34;;;;;;;18.50;14.45;;;10.90;99.90;;;;;;5046422;28;20033;-77
2021/09/29 00:54:01;;;;;;;20.90;15.40;;;10.90;99.90;;;;;;5050623;28;20076;-77
2021/09/29 00:56:27;;;;;;;18.00;14.43;;;11.00;99.90;;;;;;5052509;28;20040;-77
2021/09/29 00:58:53;;;;;;;14.52;12.35;;;11.00;99.90;;;;;;5035024;28;20037;-77
2021/09/29 01:01:19;;;;;;;16.20;11.60;;;11.00;99.90;;;;;;5034102;28;20045;-76
2021/09/29 01:03:48;;;;;;;19.40;12.38;;;11.10;99.90;;;;;;5035594;28;20444;-76
2021/09/29 01:06:36;;;;;;;18.40;11.38;;;11.10;99.90;;;;;;5035255;28;20115;-76
2021/09/29 01:09:27;;;;;;;17.42;11.43;;;11.20;99.90;;;;;;5068195;28;20088;-76
2021/09/29 01:12:08;;;;;;;13.90;9.73;;;11.30;99.90;;;;;;5038743;28;20048;-77
2021/09/29 01:14:53;;;;;;;14.07;10.15;;;11.30;99.90;;;;;;5033588;28;20047;-77
2021/09/29 01:17:20;;;;;;;14.20;10.30;;;11.30;99.90;;;;;;5050517;28;20120;-76
2021/09/29 01:20:09;;;;;;;13.93;9.93;;;11.40;99.90;;;;;;5052011;28;20044;-76
2021/09/29 01:23:02;;;;;;;14.80;10.32;;;11.40;99.90;;;;;;5051798;28;20036;-76
2021/09/29 01:25:54;;;;;;;12.30;8.93;;;11.40;99.90;;;;;;5049812;28;20051;-76
2021/09/29 01:28:32;;;;;;;14.02;9.10;;;11.40;99.90;;;;;;5051038;28;20563;-76
2021/09/29 01:31:02;;;;;;;14.23;8.93;;;11.40;99.90;;;;;;5048631;28;20043;-76
2021/09/29 01:33:30;;;;;;;13.95;9.15;;;11.40;99.90;;;;;;5034479;28;20036;-76
2021/09/29 01:35:56;;;;;;;15.63;9.77;;;11.40;99.90;;;;;;5051945;28;20048;-76
2021/09/29 01:38:23;;;;;;;16.90;9.07;;;11.40;99.90;;;;;;5034846;28;20049;-77
2021/09/29 01:40:49;;;;;;;15.15;9.32;;;11.40;99.90;;;;;;5034975;28;20526;-76
2021/09/29 01:43:15;;;;;;;17.20;9.05;;;11.40;99.90;;;;;;5035660;28;20052;-76
2021/09/29 01:45:46;;;;;;;12.75;8.85;;;11.40;99.90;;;;;;5051063;28;20036;-76
2021/09/29 01:48:12;;;;;;;;;;;11.40;99.90;;;;;;5051694;28;20053;-76
2021/09/29 01:50:40;;;;;;;14.95;9.23;;;11.40;99.90;;;;;;5035334;28;19920;-76
2021/09/29 01:53:08;;;;;;;14.23;8.35;;;11.30;99.90;;;;;;5051731;28;20064;-75
2021/09/29 01:55:34;;;;;;;10.18;8.20;;;11.30;99.90;;;;;;5035089;28;20036;-77
2021/09/29 01:58:04;;;;;;;16.20;8.52;;;11.30;99.90;;;;;;5035244;28;20052;-76
2021/09/29 02:00:30;;;;;;;12.77;7.90;;;11.30;99.90;;;;;;5047186;28;20383;-77
2021/09/29 02:02:56;;;;;;;15.10;8.40;;;11.30;99.90;;;;;;5050583;28;20949;-76
2021/09/29 02:05:33;;;;;;;12.90;8.05;;;11.30;99.90;;;;;;5034259;28;20593;-76
2021/09/29 02:08:08;;;;;;;14.27;8.40;;;11.30;99.90;;;;;;5051367;28;20044;-76
2021/09/29 02:10:34;;;;;;;11.38;7.40;;;11.30;99.90;;;;;;5048685;28;20570;-76
2021/09/29 02:13:01;;;;;;;13.30;8.32;;;11.30;99.90;;;;;;5049599;28;20048;-76
2021/09/29 02:15:27;;;;;;;10.85;8.18;;;11.30;99.90;;;;;;5048026;28;20067;-76
2021/09/29 02:17:53;;;;;;;14.02;8.32;;;11.20;99.90;;;;;;5034550;28;20048;-76
2021/09/29 02:20:19;;;;;;;12.75;8.13;;;11.20;99.90;;;;;;5033421;28;20033;-75
2021/09/29 02:22:45;;;;;;;12.90;8.57;;;11.20;99.90;;;;;;5050457;28;20097;-75
2021/09/29 02:25:12;;;;;;;12.43;9.02;;;11.20;99.90;;;;;;5050888;28;20110;-76
2021/09/29 02:27:38;;;;;;;14.45;9.88;;;11.20;99.90;;;;;;5050429;28;20557;-76
2021/09/29 02:30:09;;;;;;;16.23;9.48;;;11.10;99.90;;;;;;5049872;28;20032;-77
2021/09/29 02:32:37;;;;;;;13.30;9.07;;;11.10;99.90;;;;;;5035933;28;20555;-75
2021/09/29 02:35:05;;;;;;;13.27;9.27;;;11.10;99.90;;;;;;5051030;28;20127;-75
2021/09/29 02:37:34;;;;;;;16.40;9.60;;;11.10;99.90;;;;;;5050591;28;20072;-76
2021/09/29 02:40:00;;;;;;;11.85;9.27;;;11.10;99.90;;;;;;5033187;28;20515;-76
2021/09/29 02:42:26;;;;;;;17.00;10.10;;;11.00;99.90;;;;;;5050023;28;20056;-75
2021/09/29 02:44:52;;;;;;;12.73;9.20;;;11.00;99.90;;;;;;5050211;28;20063;-75
2021/09/29 02:47:17;;;;;;;12.50;9.23;;;11.00;99.90;;;;;;5050123;28;20045;-76
2021/09/29 02:49:43;;;;;;;13.00;9.38;;;11.00;99.90;;;;;;5050238;28;20044;-75
2021/09/29 02:52:09;;;;;;;18.83;9.90;;;11.00;99.90;;;;;;5050166;28;20067;-75
2021/09/29 02:54:35;;;;;;;14.35;9.60;;;11.00;99.90;;;;;;5050252;28;20044;-75
2021/09/29 02:57:01;;;;;;;13.75;9.65;;;11.00;99.90;;;;;;5048968;28;20056;-75
2021/09/29 02:59:30;;;;;;;11.88;9.25;;;11.00;99.90;;;;;;5029370;28;20142;-75
2021/09/29 03:01:55;;;;;;;12.48;9.82;;;11.00;99.90;;;;;;5050382;28;20502;-75
2021/09/29 03:04:21;;;;;;;14.57;10.20;;;11.10;99.90;;;;;;5049306;28;20064;-75
2021/09/29 03:06:47;;;;;;;14.80;8.93;;;11.10;99.90;;;;;;5032952;28;20044;-75
2021/09/29 03:09:13;;;;;;;16.48;10.13;;;11.10;99.90;;;;;;5049703;28;20045;-75
2021/09/29 03:11:39;;;;;;;14.10;8.90;;;11.10;99.90;;;;;;5049814;28;20044;-75
2021/09/29 03:14:04;;;;;;;16.85;9.80;;;11.10;99.90;;;;;;5048383;28;20106;-75
2021/09/29 03:16:31;;;;;;;15.50;10.30;;;11.00;99.90;;;;;;5046535;28;20044;-75
2021/09/29 03:18:57;;;;;;;15.48;11.20;;;11.00;99.90;;;;;;5050865;28;20040;-75
2021/09/29 03:21:22;;;;;;;15.55;10.73;;;11.00;99.90;;;;;;5048348;28;20051;-75
2021/09/29 03:23:48;;;;;;;11.88;9.25;;;11.10;99.90;;;;;;5034491;28;20033;-76
2021/09/29 03:26:17;;;;;;;18.10;11.05;;;11.00;99.90;;;;;;5050441;28;20080;-76
2021/09/29 03:28:44;;;;;;;16.25;10.85;;;11.00;99.90;;;;;;5031990;28;20134;-75
2021/09/29 03:31:11;;;;;;;12.82;9.48;;;11.00;99.90;;;;;;5048943;28;20127;-76
2021/09/29 03:33:37;;;;;;;13.95;10.60;;;11.00;99.90;;;;;;5032776;28;20055;-75
2021/09/29 03:36:03;;;;;;;16.27;11.73;;;11.00;99.90;;;;;;5050427;28;20048;-76
2021/09/29 03:38:29;;;;;;;22.15;11.85;;;11.00;99.90;;;;;;5032813;28;20075;-75
2021/09/29 03:40:55;;;;;;;20.27;13.48;;;10.90;99.90;;;;;;5032361;28;20075;-75
2021/09/29 03:43:21;;;;;;;16.27;12.35;;;10.90;99.90;;;;;;5032955;28;20060;-76
2021/09/29 03:45:47;;;;;;;18.33;13.23;;;10.90;99.90;;;;;;5048832;28;20128;-75
2021/09/29 03:48:13;;;;;;;17.40;13.40;;;10.90;99.90;;;;;;5049217;28;20076;-75
2021/09/29 03:50:39;;;;;;;20.17;13.95;;;10.90;99.90;;;;;;5048725;28;20044;-76
2021/09/29 03:53:04;;;;;;;18.98;14.05;;;10.90;99.90;;;;;;5049140;28;20113;-76
2021/09/29 03:55:30;;;;;;;17.08;14.00;;;10.90;99.90;;;;;;5046822;28;20045;-76
2021/09/29 03:57:56;;;;;;;19.90;15.43;;;10.80;99.90;;;;;;5032871;28;20048;-76
2021/09/29 04:00:22;;;;;;;16.23;14.07;;;10.80;99.90;;;;;;5046176;28;20039;-75
2021/09/29 04:02:48;;;;;;;18.30;14.82;;;10.80;99.90;;;;;;5064653;28;20064;-76
2021/09/29 04:05:13;;;;;;;19.80;14.55;;;10.80;99.90;;;;;;5050742;28;20052;-75
2021/09/29 04:07:40;;;;;;;17.90;14.38;;;10.80;99.90;;;;;;5033505;28;20044;-75
2021/09/29 04:10:08;;;;;;;15.18;13.27;;;10.90;99.90;;;;;;5034239;28;20530;-76
2021/09/29 04:12:34;;;;;;;18.77;14.30;;;10.80;99.90;;;;;;5050278;28;20044;-76
2021/09/29 04:15:00;;;;;;;20.10;13.90;;;10.80;99.90;;;;;;5049766;28;20048;-76
2021/09/29 04:17:26;;;;;;;19.02;14.43;;;10.80;99.90;;;;;;5050584;28;20045;-75
2021/09/29 04:19:52;;;;;;;16.77;13.77;;;10.80;99.90;;;;;;5067168;28;20343;-76
2021/09/29 04:22:18;;;;;;;17.13;13.10;;;10.80;99.90;;;;;;5067071;28;20044;-76
2021/09/29 04:24:47;;;;;;;19.80;13.90;;;10.80;99.90;;;;;;5050406;28;20044;-75
2021/09/29 04:27:14;;;;;;;17.63;13.68;;;10.80;99.90;;;;;;5050846;28;20052;-75
2021/09/29 04:29:41;;;;;;;17.23;13.68;;;10.80;99.90;;;;;;5036326;28;20101;-76
2021/09/29 04:32:08;;;;;;;21.55;15.02;;;10.80;99.90;;;;;;5053559;28;20185;-75
2021/09/29 04:34:34;;;;;;;17.50;13.82;;;10.70;99.90;;;;;;5036433;28;20040;-75
2021/09/29 04:37:00;;;;;;;21.63;14.50;;;10.70;99.90;;;;;;5054955;28;20045;-76
2021/09/29 04:39:26;;;;;;;17.02;13.88;;;10.70;99.90;;;;;;5050580;28;20127;-75
2021/09/29 04:41:52;;;;;;;18.65;14.25;;;10.70;99.90;;;;;;5032915;28;20041;-76
2021/09/29 04:44:17;;;;;;;18.55;14.15;;;10.70;99.90;;;;;;5051328;28;20053;-75
2021/09/29 04:46:43;;;;;;;16.13;12.98;;;10.70;99.90;;;;;;5013181;28;20088;-75
2021/09/29 04:49:09;;;;;;;18.42;13.75;;;10.70;99.90;;;;;;5031623;28;20403;-75
2021/09/29 04:51:35;;;;;;;15.45;11.98;;;10.60;99.90;;;;;;5029243;28;20049;-76
2021/09/29 04:54:00;;;;;;;18.80;13.55;;;10.70;99.90;;;;;;5010267;28;20403;-75
2021/09/29 04:56:26;;;;;;;17.05;13.27;;;10.70;99.90;;;;;;5013031;28;20056;-75
2021/09/29 04:58:52;;;;;;;18.85;13.80;;;10.70;99.90;;;;;;5033312;28;20044;-77
2021/09/29 05:01:25;;;;;;;21.15;13.65;;;10.70;99.90;;;;;;5051142;28;20068;-76
2021/09/29 05:03:54;;;;;;;14.32;12.35;;;10.70;99.90;;;;;;5053676;28;20080;-75
2021/09/29 05:06:21;;;;;;;20.92;14.15;;;10.70;99.90;;;;;;5015969;28;20095;-76
2021/09/29 05:08:49;;;;;;;16.20;12.25;;;10.70;99.90;;;;;;5054087;28;20049;-75
2021/09/29 05:11:24;;;;;;;17.10;12.95;;;10.70;99.90;;;;;;5065687;28;20076;-76
2021/09/29 05:13:50;;;;;;;15.57;12.57;;;10.70;99.90;;;;;;5039886;28;20044;-75
2021/09/29 05:16:16;;;;;;;21.10;14.15;;;10.70;99.90;;;;;;5053204;28;20045;-75
2021/09/29 05:18:42;;;;;;;17.05;12.95;;;10.70;99.90;;;;;;5014396;28;20044;-75
2021/09/29 05:21:08;;;;;;;17.35;12.75;;;10.70;99.90;;;;;;5035120;28;20494;-76
2021/09/29 05:23:34;;;;;;;14.88;11.93;;;10.70;99.90;;;;;;5017015;28;20140;-75
2021/09/29 05:26:00;;;;;;;19.60;12.55;;;10.80;99.90;;;;;;5032903;28;20064;-75
2021/09/29 05:28:40;;;;;;;20.02;14.02;;;10.70;99.90;;;;;;5032083;28;20045;-76
2021/09/29 05:31:06;;;;;;;16.10;12.60;;;10.80;99.90;;;;;;5049446;28;20036;-75
2021/09/29 05:33:32;;;;;;;18.33;11.77;;;10.80;99.90;;;;;;5052557;28;20090;-75
2021/09/29 05:35:58;;;;;;;21.55;13.93;;;10.80;99.90;;;;;;5036540;28;20494;-76
2021/09/29 05:38:24;;;;;;;20.55;13.48;;;10.70;99.90;;;;;;5063975;28;20045;-76
2021/09/29 05:40:50;;;;;;;18.23;12.57;;;10.80;99.90;;;;;;5032108;28;20063;-76
2021/09/29 05:43:16;;;;;;;19.75;13.90;;;10.70;99.90;;;;;;5027276;28;20131;-76
2021/09/29 05:45:42;;;;;;;15.82;11.60;;;10.80;99.90;;;;;;5010190;28;20056;-75
2021/09/29 05:48:08;;;;;;;20.58;13.30;;;10.80;99.90;;;;;;5015395;28;20080;-75
2021/09/29 05:50:36;;;;;;;17.48;13.30;;;10.80;99.90;;;;;;5032415;28;20090;-77
2021/09/29 05:53:03;;;;;;;16.73;12.13;;;10.80;99.90;;;;;;5029750;28;20055;-76
2021/09/29 05:55:29;;;;;;;18.08;12.77;;;10.80;99.90;;;;;;5034437;28;20045;-76
2021/09/29 05:57:55;;;;;;;17.85;12.98;;;10.70;99.90;;;;;;5034930;28;20055;-75
2021/09/29 06:00:21;;;;;;;17.80;11.73;;;10.70;99.90;;;;;;5047261;28;20083;-75
2021/09/29 06:02:46;;;;;;;17.63;12.93;;;10.70;99.90;;;;;;5011935;28;21652;-75
2021/09/29 06:05:12;;;;;;;16.55;12.27;;;10.70;99.90;;;;;;5014177;28;20037;-75
2021/09/29 06:07:38;;;;;;;19.10;13.35;;;10.70;99.90;;;;;;5030813;28;20119;-75
2021/09/29 06:10:05;;;;;;;13.52;11.77;;;10.80;99.90;;;;;;5031916;28;20049;-75
2021/09/29 06:12:34;;;;;;;20.13;11.95;;;10.80;99.90;;;;;;5043088;28;20042;-75
2021/09/29 06:15:00;;;;;;;18.13;11.80;;;10.80;99.90;;;;;;5052507;28;20100;-75
2021/09/29 06:17:52;;;;;;;19.02;12.45;;;10.80;99.90;;;;;;5030857;28;20304;-76
2021/09/29 06:20:17;;;;;;;18.98;13.43;;;10.90;99.90;;;;;;5044474;28;20040;-76
2021/09/29 06:22:42;;;;;;;14.68;11.57;;;10.90;99.90;;;;;;5040801;28;20036;-77
2021/09/29 06:25:08;;;;;;;15.27;12.52;;;11.00;99.90;;;;;;5031816;28;20506;-76
2021/09/29 06:27:34;;;;;;;18.00;11.32;;;11.00;99.90;;;;;;5050005;28;20128;-76
2021/09/29 06:30:00;;;;;;;15.95;11.38;;;11.10;99.90;;;;;;5047966;28;20199;-76
2021/09/29 06:32:26;;;;;;;17.13;11.93;;;11.20;99.90;;;;;;5049530;28;20059;-75
2021/09/29 06:34:52;;;;;;;17.92;12.10;;;11.20;99.90;;;;;;5029927;28;20042;-76
2021/09/29 06:37:18;;;;;;;15.18;11.43;;;11.30;99.90;;;;;;5047196;28;20438;-76
2021/09/29 06:39:44;;;;;;;15.73;11.20;;;11.40;99.90;;;;;;5038903;28;20037;-75
2021/09/29 06:42:10;;;;;;;16.30;10.82;;;11.40;99.90;;;;;;5034458;28;20117;-76
2021/09/29 06:44:35;;;;;;;16.38;11.23;;;11.40;99.90;;;;;;5049908;28;20048;-75
2021/09/29 06:47:02;;;;;;;14.82;10.15;;;11.50;99.90;;;;;;5047221;28;20052;-76
2021/09/29 06:49:28;;;;;;;16.60;10.27;;;11.60;99.90;;;;;;5019608;28;20048;-76
2021/09/29 06:51:54;;;;;;;15.48;10.48;;;11.60;99.90;;;;;;5032062;28;20045;-76
2021/09/29 06:54:23;;;;;;;16.05;9.48;;;11.70;99.90;;;;;;5050489;28;20037;-76
2021/09/29 06:56:49;;;;;;;14.77;10.68;;;11.60;99.90;;;;;;5025968;28;20037;-76
2021/09/29 06:59:15;;;;;;;19.63;11.15;;;11.70;99.90;;;;;;5031963;28;20389;-76
2021/09/29 07:01:41;;;;;;;16.35;10.48;;;11.70;99.90;;;;;;5037287;28;20167;-76
2021/09/29 07:04:07;;;;;;;17.05;9.80;;;11.70;99.90;;;;;;5048527;28;20513;-75
2021/09/29 07:06:32;;;;;;;14.27;9.65;;;11.70;99.90;;;;;;5049524;28;20086;-76
2021/09/29 07:08:58;;;;;;;13.93;9.15;;;11.70;99.90;;;;;;5033503;28;20048;-75
2021/09/29 07:11:24;;;;;;;15.23;9.40;;;11.80;99.90;;;;;;5032754;28;20049;-77
2021/09/29 07:13:50;;;;;;;17.08;9.68;;;11.80;99.90;;;;;;5014923;28;20862;-80
2021/09/29 07:16:18;;;;;;;14.70;9.77;;;11.80;99.90;;;;;;5046897;28;20053;-76
2021/09/29 07:18:47;;;;;;;14.15;9.70;;;11.80;99.90;;;;;;5030150;28;20049;-76
2021/09/29 07:21:12;;;;;;;13.82;8.95;;;11.80;99.90;;;;;;5026734;28;20048;-76
2021/09/29 07:23:38;;;;;;;17.70;9.75;;;11.80;99.90;;;;;;5030402;28;20033;-75
2021/09/29 07:26:04;;;;;;;15.68;10.18;;;11.80;99.90;;;;;;5046320;28;20041;-76
2021/09/29 07:28:30;;;;;;;15.02;9.80;;;11.80;99.90;;;;;;5038693;28;20089;-75
2021/09/29 07:30:56;;;;;;;17.15;10.77;;;11.80;99.90;;;;;;5026286;28;20060;-74
2021/09/29 07:33:22;;;;;;;17.45;10.05;;;11.80;99.90;;;;;;5032219;28;20045;-74
2021/09/29 07:35:50;;;;;;;15.23;9.82;;;11.90;99.90;;;;;;5046544;28;20040;-77
2021/09/29 07:38:16;;;;;;;17.98;10.07;;;11.90;99.90;;;;;;5048724;28;20139;-75
2021/09/29 07:40:42;;;;;;;15.52;10.27;;;11.90;99.90;;;;;;5044056;28;20053;-75
2021/09/29 07:43:08;;;;;;;14.77;10.45;;;11.90;99.90;;;;;;5033010;28;20713;-75
2021/09/29 07:45:34;;;;;;;15.85;10.18;;;11.90;99.90;;;;;;5029675;28;20048;-76
2021/09/29 07:48:00;;;;;;;17.35;10.10;;;11.90;99.90;;;;;;5046701;28;20072;-75
2021/09/29 07:50:25;;;;;;;16.48;9.80;;;11.90;99.90;;;;;;5030607;28;20056;-76
2021/09/29 07:52:51;;;;;;;17.08;10.15;;;11.90;99.90;;;;;;5045711;28;20116;-76
2021/09/29 07:55:20;;;;;;;17.40;9.85;;;11.90;99.90;;;;;;5030302;28;20549;-75
2021/09/29 07:57:46;;;;;;;15.40;10.25;;;11.90;99.90;;;;;;5046207;28;20135;-75
2021/09/29 08:00:15;;;;;;;17.60;10.27;;;11.90;99.90;;;;;;5031776;28;20088;-75
2021/09/29 08:02:42;;;;;;;18.55;11.43;;;12.00;99.90;;;;;;5064318;28;20112;-75
2021/09/29 08:05:09;;;;;;;17.38;10.40;;;12.00;99.90;;;;;;5022732;28;20057;-75
2021/09/29 08:07:34;;;;;;;18.50;10.63;;;12.00;99.90;;;;;;5031909;28;20470;-75
2021/09/29 08:10:00;;;;;;;19.05;11.05;;;12.00;99.90;;;;;;5015319;28;20041;-75
2021/09/29 08:12:27;;;;;;;16.35;10.73;;;12.00;99.90;;;;;;5010922;28;20407;-75
2021/09/29 08:14:53;;;;;;;19.60;11.25;;;12.00;99.90;;;;;;5045004;28;20044;-76
2021/09/29 08:17:19;;;;;;;20.27;11.85;;;12.00;99.90;;;;;;5050003;28;20041;-76
2021/09/29 08:19:48;;;;;;;16.63;10.95;;;12.00;99.90;;;;;;5028359;28;20041;-77
2021/09/29 08:22:14;;;;;;;17.70;11.50;;;12.10;99.90;;;;;;5050702;28;20541;-76
2021/09/29 08:33:10;;;;;;;16.77;10.80;;;12.20;99.90;;;;;;5064579;28;20471;-77
2021/09/29 08:35:46;;;;;;;18.73;12.00;;;12.20;99.90;;;;;;5017640;28;20037;-75
2021/09/29 08:38:25;;;;;;;17.05;11.50;;;12.20;99.90;;;;;;5035011;28;20052;-77
2021/09/29 08:43:46;;;;;;;17.00;10.80;;;12.20;99.90;;;;;;5051514;28;20136;-74
2021/09/29 08:46:21;;;;;;;15.55;10.93;;;12.30;99.90;;;;;;5049054;28;20033;-77
2021/09/29 09:18:45;;;;;;;16.63;11.85;;;12.30;99.90;;;;;;5057737;28;20051;-75
2021/09/29 09:21:12;;;;;;;22.48;14.00;;;12.30;99.90;;;;;;5034162;28;20514;-76
2021/09/29 09:23:43;;;;;;;20.58;14.88;;;12.30;99.90;;;;;;5042608;28;20469;-76
2021/09/29 09:26:13;;;;;;;;;;;12.30;99.90;;;;;;5054151;28;20033;-77
2021/09/29 09:28:39;;;;;;;19.50;14.13;;;12.30;99.90;;;;;;5088269;28;20021;-76
2021/09/29 09:31:14;;;;;;;24.77;16.42;;;12.30;99.90;;;;;;5051953;28;20941;-76
2021/09/29 09:33:48;;;;;;;20.73;13.73;;;12.30;99.90;;;;;;5036340;28;20052;-76
2021/09/29 09:36:25;;;;;;;19.20;12.55;;;12.30;99.90;;;;;;5043452;28;20388;-75
2021/09/29 09:38:52;;;;;;;12.93;11.52;;;12.30;99.90;;;;;;5045870;28;20769;-76
2021/09/29 09:41:18;;;;;;;18.25;13.65;;;12.30;99.90;;;;;;5036190;28;20131;-76
2021/09/29 09:43:55;;;;;;;15.32;12.82;;;12.30;99.90;;;;;;5043333;28;20140;-76
2021/09/29 09:46:23;;;;;;;14.52;11.50;;;12.30;99.90;;;;;;5035816;28;20781;-76
2021/09/29 09:49:09;;;;;;;13.98;11.48;;;12.30;99.90;;;;;;5036876;28;20501;-76
2021/09/29 09:52:04;;;;;;;14.10;12.15;;;12.30;99.90;;;;;;5037296;28;20475;-75
2021/09/29 09:54:36;;;;;;;13.55;12.15;;;12.30;99.90;;;;;;5030741;28;20143;-76
2021/09/29 09:57:02;;;;;;;16.33;13.45;;;12.30;99.90;;;;;;5051053;28;20047;-76
2021/09/29 09:59:31;;;;;;;15.13;13.23;;;12.40;99.90;;;;;;5029650;28;20498;-76
2021/09/29 10:01:59;;;;;;;14.05;11.32;;;12.40;99.90;;;;;;5033638;28;20052;-76
2021/09/29 10:04:25;;;;;;;15.70;14.05;;;12.40;99.90;;;;;;5050884;28;20316;-75
2021/09/29 10:06:51;;;;;;;15.30;12.90;;;12.40;99.90;;;;;;5034116;28;20507;-76
2021/09/29 10:23:10;;;;;;;12.80;11.10;;;12.40;99.90;;;;;;5048223;28;20394;-80
2021/09/29 10:26:11;;;;;;;10.90;8.65;;;12.40;99.90;;;;;;5050966;28;20052;-75
2021/09/29 10:28:40;;;;;;;7.63;6.53;;;12.40;99.90;;;;;;5030467;28;20153;-76
2021/09/29 10:33:55;;;;;;;8.23;7.07;;;12.40;99.90;;;;;;5050170;28;20110;-77
2021/09/29 10:44:26;;;;;;;6.60;5.53;;;12.50;99.90;;;;;;5046168;28;20053;-78
2021/09/29 10:47:09;;;;;;;6.05;4.95;;;12.40;99.90;;;;;;5044391;28;20052;-77
2021/09/29 11:34:09;;;;;;;14.68;13.18;;;12.70;99.90;;;;;;5035350;28;20056;-77
2021/09/29 12:11:27;;;;;;;4.97;2.70;;;12.30;99.90;;;;;;5047507;28;20063;-77
2021/09/29 12:14:01;;;;;;;3.60;2.30;;;12.30;99.90;;;;;;5066566;28;20186;-77
2021/09/29 12:16:31;;;;;;;3.10;2.10;;;12.30;99.90;;;;;;5047125;28;20072;-77
2021/09/29 12:19:02;;;;;;;3.35;1.35;;;12.20;99.90;;;;;;5035961;28;20044;-78
2021/09/29 12:21:44;;;;;;;3.05;0.90;;;12.20;99.90;;;;;;5049953;28;20081;-77
2021/09/29 12:24:13;;;;;;;2.50;0.70;;;12.10;99.90;;;;;;5040199;28;20048;-76
2021/09/29 12:26:46;;;;;;;1.70;0.70;;;12.10;99.90;;;;;;5029311;28;20111;-76
2021/09/29 12:29:26;;;;;;;6.00;1.88;;;12.00;99.90;;;;;;5070842;28;20502;-77
2021/09/29 12:32:05;;;;;;;1.48;0.57;;;11.90;99.90;;;;;;5028995;28;20041;-77
2021/09/29 12:34:47;;;;;;;4.03;0.47;;;11.80;99.90;;;;;;5022500;28;20055;-77
2021/09/29 12:37:13;;;;;;;2.22;0.50;;;11.80;99.90;;;;;;5033244;28;20058;-77
2021/09/29 12:39:40;;;;;;;2.15;0.40;;;11.70;99.90;;;;;;5066550;28;20124;-77
2021/09/29 12:42:06;;;;;;;1.55;0.45;;;11.70;99.90;;;;;;5051896;28;20088;-77
2021/09/29 12:44:33;;;;;;;0.90;0.30;;;11.60;99.90;;;;;;5029792;28;20091;-78
2021/09/29 12:47:08;;;;;;;4.25;0.60;;;11.60;99.90;;;;;;5037196;28;20793;-77
2021/09/29 12:49:34;;;;;;;2.78;0.52;;;11.60;99.90;;;;;;5044351;28;20099;-77
2021/09/29 12:52:10;;;;;;;3.00;0.50;;;11.60;99.90;;;;;;5067177;28;20506;-77
2021/09/29 12:54:42;;;;;;;1.95;0.57;;;11.60;99.90;;;;;;5053808;28;20047;-77
2021/09/29 12:57:08;;;;;;;4.78;0.60;;;11.60;99.90;;;;;;5054105;28;20128;-77
2021/09/29 12:59:34;;;;;;;2.70;0.50;;;11.60;99.90;;;;;;5034905;28;20096;-76
2021/09/29 13:01:59;;;;;;;3.85;0.60;;;11.50;99.90;;;;;;5053308;28;20090;-77
2021/09/29 13:04:25;;;;;;;2.95;0.50;;;11.50;99.90;;;;;;5053143;28;20055;-78
2021/09/29 13:06:51;;;;;;;2.58;0.70;;;11.50;99.90;;;;;;5036504;28;20094;-77
2021/09/29 13:09:20;;;;;;;2.72;0.57;;;11.50;99.90;;;;;;5054022;28;20458;-78
2021/09/29 13:11:45;;;;;;;3.75;0.50;;;11.50;99.90;;;;;;5036042;28;20056;-76
2021/09/29 13:14:11;;;;;;;1.75;0.60;;;11.50;99.90;;;;;;5053865;28;20051;-77
2021/09/29 13:16:37;;;;;;;4.57;0.80;;;11.50;99.90;;;;;;5017927;28;20048;-76
2021/09/29 13:19:10;;;;;;;2.63;0.63;;;11.50;99.90;;;;;;5056287;28;20048;-77
2021/09/29 13:21:52;;;;;;;8.40;1.17;;;11.50;99.90;;;;;;5052312;28;20056;-77
2021/09/29 13:27:04;;;;;;;2.80;0.70;;;11.50;99.90;;;;;;5057194;28;20048;-77
2021/09/29 13:38:05;;;;;;;3.75;1.10;;;11.30;99.90;;;;;;4995176;28;20048;-78
2021/09/29 13:40:34;;;;;;;3.92;1.58;;;11.40;99.90;;;;;;5017557;28;20040;-78
2021/09/29 13:43:01;;;;;;;3.33;1.10;;;11.30;99.90;;;;;;5015151;28;20064;-77
2021/09/29 13:45:27;;;;;;;3.58;0.93;;;11.30;99.90;;;;;;5023299;28;20178;-77
2021/09/29 13:47:55;;;;;;;5.97;0.90;;;11.30;99.90;;;;;;5057207;28;20551;-77
2021/09/29 13:50:21;;;;;;;4.82;1.10;;;11.30;99.90;;;;;;5019702;28;20185;-76
2021/09/29 13:52:47;;;;;;;3.28;1.08;;;11.30;99.90;;;;;;5019749;28;20528;-77
2021/09/29 13:55:19;;;;;;;3.75;1.40;;;11.40;99.90;;;;;;5052246;28;20051;-77
2021/09/29 14:30:22;;;;;;;1.83;1.00;;;11.40;99.90;;;;;;5052975;28;20131;-78
2021/09/29 14:35:23;;;;;;;3.17;1.45;;;11.40;99.90;;;;;;5021495;28;20135;-78
2021/09/29 14:37:49;;;;;;;3.95;2.35;;;11.40;99.90;;;;;;5051776;28;20183;-76
2021/09/29 14:40:18;;;;;;;3.53;1.63;;;11.40;99.90;;;;;;5035638;28;20041;-76
2021/09/29 14:42:44;;;;;;;4.00;2.40;;;11.50;99.90;;;;;;5052407;28;20525;-76
2021/09/29 14:45:10;;;;;;;4.60;2.70;;;11.50;99.90;;;;;;5035763;28;20048;-76
2021/09/29 14:47:36;;;;;;;3.28;2.50;;;11.60;99.90;;;;;;5035015;28;20056;-76
2021/09/29 14:50:05;;;;;;;3.83;3.00;;;11.60;99.90;;;;;;5035087;28;20422;-77
2021/09/29 14:52:34;;;;;;;7.45;3.60;;;11.70;99.90;;;;;;5051918;28;20044;-77
2021/09/29 14:55:00;;;;;;;4.32;1.63;;;11.70;99.90;;;;;;5018363;28;20051;-76
2021/09/29 14:57:26;;;;;;;3.95;1.95;;;11.80;99.90;;;;;;5050889;28;20126;-75
2021/09/29 14:59:52;;;;;;;3.33;1.15;;;11.80;99.90;;;;;;5035221;28;20491;-77
2021/09/29 15:02:17;;;;;;;3.15;1.20;;;11.80;99.90;;;;;;5032260;28;20049;-75
2021/09/29 15:04:45;;;;;;;4.35;1.02;;;11.80;99.90;;;;;;5032101;28;20056;-76
2021/09/29 15:07:11;;;;;;;4.55;1.70;;;11.80;99.90;;;;;;5049572;28;20461;-76
2021/09/29 15:09:38;;;;;;;3.63;1.70;;;11.70;99.90;;;;;;5047409;28;20136;-76
2021/09/29 15:12:04;;;;;;;5.45;1.70;;;11.70;99.90;;;;;;5056607;28;20098;-76
2021/09/29 15:14:42;;;;;;;3.05;1.00;;;11.70;99.90;;;;;;5069667;28;20054;-77
2021/09/29 15:17:29;;;;;;;3.10;1.25;;;11.70;99.90;;;;;;5052789;28;20106;-76
2021/09/29 15:20:06;;;;;;;4.13;1.30;;;11.70;99.90;;;;;;5040636;28;20055;-76
2021/09/29 15:25:28;;;;;;;4.47;1.30;;;11.60;99.90;;;;;;5048863;28;20048;-76
2021/09/29 15:47:05;;;;;;;3.95;0.88;;;11.00;99.90;;;;;;5062291;28;20037;-75
2021/09/29 16:02:49;;;;;;;6.68;1.17;;;10.80;99.90;;;;;;4956330;28;20105;-76
2021/09/29 16:08:21;;;;;;;3.75;0.90;;;10.70;99.90;;;;;;5075712;28;20058;-76
2021/09/29 16:31:21;;;;;;;9.13;1.35;;;10.70;99.90;;;;;;5050596;28;20990;-77
2021/09/29 16:33:51;;;;;;;5.60;1.35;;;10.70;99.90;;;;;;5070351;28;20087;-77
2021/09/29 16:36:18;;;;;;;7.40;1.30;;;10.70;99.90;;;;;;5051559;28;20045;-77
2021/09/29 16:38:46;;;;;;;6.10;1.20;;;10.70;99.90;;;;;;5026110;28;20136;-77
2021/09/29 16:41:13;;;;;;;7.82;1.00;;;10.70;99.90;;;;;;5052786;28;20056;-77
2021/09/29 16:43:39;;;;;;;6.82;1.55;;;10.70;99.90;;;;;;5048499;28;20044;-77
2021/09/29 16:46:05;;;;;;;7.70;1.40;;;10.70;99.90;;;;;;5028075;28;20392;-77
2021/09/29 16:48:35;;;;;;;6.10;1.27;;;10.70;99.90;;;;;;5027659;28;20044;-77